Time;durP1;ratioP1;P1;durP2;ratioP2;P2;SDS_P1;SDS_P2;PMS_P1;PMS_P2;Temp;Humidity;BMP_temperature;BMP_pressure;BME280_temperature;BME280_humidity;BME280_pressure;Samples;Min_cycle;Max_cycle;Signal;HPM_P1;HPM_P2
2023/07/17 00:02:46;;;;;;;8.43;4.68;;;17.00;99.90;;;;;;6228215;28;20060;-81
2023/07/17 00:05:48;;;;;;;10.52;3.55;;;17.00;99.90;;;;;;6226532;28;20053;-81
2023/07/17 00:08:50;;;;;;;5.20;4.05;;;17.00;99.90;;;;;;6237674;28;20045;-81
2023/07/17 00:11:51;;;;;;;5.78;4.53;;;17.00;99.90;;;;;;6226272;28;20049;-79
2023/07/17 00:14:53;;;;;;;12.60;5.35;;;17.00;99.90;;;;;;6226942;28;20046;-80
2023/07/17 00:17:56;;;;;;;5.82;4.22;;;16.90;99.90;;;;;;6230995;28;20049;-80
2023/07/17 00:20:58;;;;;;;8.30;3.95;;;16.80;99.90;;;;;;6236509;28;20416;-80
2023/07/17 00:23:59;;;;;;;5.28;4.20;;;16.80;99.90;;;;;;6250275;28;20045;-81
2023/07/17 00:27:01;;;;;;;10.93;4.18;;;16.80;99.90;;;;;;6251480;28;20049;-82
2023/07/17 00:30:04;;;;;;;7.28;3.80;;;16.80;99.90;;;;;;6251793;28;20049;-82
2023/07/17 00:33:08;;;;;;;5.53;4.13;;;16.80;99.90;;;;;;6252090;28;20046;-81
2023/07/17 00:36:09;;;;;;;9.18;5.13;;;16.80;99.90;;;;;;6251992;28;20496;-82
2023/07/17 00:39:11;;;;;;;4.25;3.70;;;16.80;99.90;;;;;;6250709;28;20053;-82
2023/07/17 00:42:13;;;;;;;5.85;4.88;;;16.70;99.90;;;;;;6250562;28;20041;-81
2023/07/17 00:45:14;;;;;;;9.38;4.57;;;16.70;99.90;;;;;;6251788;28;20049;-81
2023/07/17 00:48:18;;;;;;;5.20;4.50;;;16.70;99.90;;;;;;6251070;28;20112;-79
2023/07/17 00:51:19;;;;;;;4.57;4.18;;;16.80;99.90;;;;;;6251442;28;20500;-81
2023/07/17 00:54:22;;;;;;;7.78;4.55;;;16.70;99.90;;;;;;6251369;28;20045;-80
2023/07/17 00:57:25;;;;;;;7.95;3.60;;;16.80;99.90;;;;;;6251181;28;20054;-79
2023/07/17 01:00:27;;;;;;;5.13;3.45;;;16.80;99.90;;;;;;6251510;28;20053;-82
2023/07/17 01:03:30;;;;;;;7.65;4.32;;;16.80;99.90;;;;;;6251556;28;20515;-82
2023/07/17 01:06:31;;;;;;;5.68;4.25;;;16.80;99.90;;;;;;6251680;28;20041;-81
2023/07/17 01:09:35;;;;;;;15.65;4.35;;;16.70;99.90;;;;;;6250719;28;20168;-81
2023/07/17 01:12:37;;;;;;;3.50;3.17;;;16.70;99.90;;;;;;6251305;28;20180;-82
2023/07/17 01:15:39;;;;;;;8.13;4.00;;;16.70;99.90;;;;;;6251302;28;20427;-82
2023/07/17 01:18:42;;;;;;;10.77;4.75;;;16.70;99.90;;;;;;6251805;28;20487;-81
2023/07/17 01:21:50;;;;;;;7.57;4.07;;;16.60;99.90;;;;;;6250815;28;20487;-82
2023/07/17 01:24:54;;;;;;;3.88;3.58;;;16.70;99.90;;;;;;6250498;28;20045;-81
2023/07/17 01:27:55;;;;;;;8.30;3.88;;;16.60;99.90;;;;;;6249645;28;20798;-82
2023/07/17 01:30:57;;;;;;;3.97;3.63;;;16.60;99.90;;;;;;6250608;28;20056;-80
2023/07/17 01:33:59;;;;;;;8.75;5.20;;;16.60;99.90;;;;;;6249892;28;20046;-80
2023/07/17 01:37:00;;;;;;;3.80;3.50;;;16.60;99.90;;;;;;6249176;28;20050;-81
2023/07/17 01:40:04;;;;;;;6.10;4.47;;;16.60;99.90;;;;;;6249237;28;20049;-80
2023/07/17 01:43:06;;;;;;;7.22;3.40;;;16.60;99.90;;;;;;6250458;28;20050;-81
2023/07/17 01:46:08;;;;;;;8.00;3.88;;;16.70;99.90;;;;;;6249865;28;20045;-81
2023/07/17 01:49:10;;;;;;;4.25;3.75;;;16.70;99.90;;;;;;6249700;28;20168;-81
2023/07/17 01:52:12;;;;;;;6.35;3.78;;;16.70;99.90;;;;;;6249230;28;20057;-80
2023/07/17 01:55:15;;;;;;;5.88;5.35;;;16.80;99.90;;;;;;6251047;28;20049;-80
2023/07/17 01:58:17;;;;;;;4.78;3.47;;;16.80;99.90;;;;;;6250511;28;20508;-79
2023/07/17 02:01:19;;;;;;;8.45;3.65;;;16.90;99.90;;;;;;6249284;28;20056;-80
2023/07/17 02:04:20;;;;;;;7.25;3.65;;;16.80;99.90;;;;;;6226747;28;20045;-81
2023/07/17 02:07:22;;;;;;;6.25;4.03;;;16.90;99.90;;;;;;6227213;28;20049;-80
2023/07/17 02:10:25;;;;;;;5.63;3.78;;;16.80;99.90;;;;;;6224824;28;20053;-81
2023/07/17 02:13:27;;;;;;;6.32;4.15;;;16.80;99.90;;;;;;6226264;28;20057;-82
2023/07/17 02:16:28;;;;;;;6.43;3.90;;;16.80;99.90;;;;;;6226910;28;20555;-82
2023/07/17 02:19:30;;;;;;;6.65;3.88;;;16.80;99.90;;;;;;6226778;28;20416;-81
2023/07/17 02:22:31;;;;;;;7.05;3.40;;;16.80;99.90;;;;;;6229239;28;20056;-82
2023/07/17 02:25:35;;;;;;;5.03;3.97;;;16.80;99.90;;;;;;6244802;28;20048;-82
2023/07/17 02:28:36;;;;;;;4.55;3.38;;;16.80;99.90;;;;;;6254785;28;20048;-82
2023/07/17 02:31:38;;;;;;;4.57;4.07;;;16.70;99.90;;;;;;6254330;28;20053;-82
2023/07/17 02:34:40;;;;;;;5.95;4.15;;;16.70;99.90;;;;;;6254500;28;20420;-81
2023/07/17 02:37:41;;;;;;;7.25;4.60;;;16.60;99.90;;;;;;6253264;28;20053;-81
2023/07/17 02:40:44;;;;;;;7.72;3.97;;;16.60;99.90;;;;;;6254086;28;20037;-81
2023/07/17 02:43:46;;;;;;;4.55;4.13;;;16.60;99.90;;;;;;6253986;28;20050;-82
2023/07/17 02:46:47;;;;;;;6.57;4.40;;;16.60;99.90;;;;;;6254207;28;20052;-82
2023/07/17 02:49:49;;;;;;;6.55;3.90;;;16.70;99.90;;;;;;6252721;28;20049;-81
2023/07/17 02:52:51;;;;;;;5.03;3.50;;;16.70;99.90;;;;;;6252843;28;20444;-81
2023/07/17 02:55:54;;;;;;;5.45;3.78;;;16.70;99.90;;;;;;6252759;28;20045;-82
2023/07/17 02:58:56;;;;;;;9.27;4.13;;;16.70;99.90;;;;;;6253708;28;20129;-82
2023/07/17 03:01:57;;;;;;;9.75;3.72;;;16.70;99.90;;;;;;6252422;28;20050;-81
2023/07/17 03:04:59;;;;;;;4.20;3.80;;;16.70;99.90;;;;;;6253002;28;20061;-82
2023/07/17 03:08:01;;;;;;;6.43;4.80;;;16.70;99.90;;;;;;6252917;28;20399;-80
2023/07/17 03:11:04;;;;;;;4.70;4.30;;;16.70;99.90;;;;;;6252677;28;20416;-81
2023/07/17 03:14:06;;;;;;;5.97;4.07;;;16.60;99.90;;;;;;6253886;28;20165;-81
2023/07/17 03:17:08;;;;;;;11.05;4.43;;;16.60;99.90;;;;;;6252319;28;20049;-82
2023/07/17 03:20:10;;;;;;;5.88;4.20;;;16.60;99.90;;;;;;6252296;28;20037;-81
2023/07/17 03:23:12;;;;;;;6.72;4.68;;;16.60;99.90;;;;;;6253003;28;20492;-80
2023/07/17 03:26:15;;;;;;;6.35;4.07;;;16.60;99.90;;;;;;6251946;28;20055;-82
2023/07/17 03:29:17;;;;;;;7.03;4.32;;;16.50;99.90;;;;;;6251634;28;20552;-81
2023/07/17 03:32:19;;;;;;;5.85;4.47;;;16.50;99.90;;;;;;6252096;28;20041;-81
2023/07/17 03:35:20;;;;;;;6.97;4.80;;;16.40;99.90;;;;;;6255453;28;20045;-80
2023/07/17 03:38:22;;;;;;;8.10;4.25;;;16.40;99.90;;;;;;6255400;28;20555;-81
2023/07/17 03:41:25;;;;;;;8.27;4.18;;;16.40;99.90;;;;;;6258628;28;20053;-82
2023/07/17 03:44:26;;;;;;;7.65;3.88;;;16.40;99.90;;;;;;6259031;28;20120;-82
2023/07/17 03:47:28;;;;;;;5.55;4.00;;;16.30;99.90;;;;;;6257657;28;20052;-80
2023/07/17 03:50:31;;;;;;;8.52;4.63;;;16.20;99.90;;;;;;6258042;28;20056;-82
2023/07/17 03:53:33;;;;;;;10.50;6.53;;;16.20;99.90;;;;;;6258898;28;20049;-80
2023/07/17 03:56:39;;;;;;;12.65;4.78;;;16.20;99.90;;;;;;6257724;28;20042;-80
2023/07/17 03:59:48;;;;;;;11.02;5.00;;;16.20;99.90;;;;;;6256735;28;20137;-80
2023/07/17 04:02:50;;;;;;;12.23;4.55;;;16.20;99.90;;;;;;6256637;28;20111;-81
2023/07/17 04:05:52;;;;;;;9.40;5.18;;;16.30;99.90;;;;;;6255581;28;20740;-80
2023/07/17 04:08:54;;;;;;;6.07;4.13;;;16.30;99.90;;;;;;6254120;28;20053;-80
2023/07/17 04:11:57;;;;;;;6.03;3.95;;;16.40;99.90;;;;;;6252983;28;20500;-81
2023/07/17 04:14:58;;;;;;;9.63;6.40;;;16.40;99.90;;;;;;6234513;28;20057;-81
2023/07/17 04:18:00;;;;;;;6.15;4.15;;;16.40;99.90;;;;;;6227497;28;20065;-81
2023/07/17 04:21:02;;;;;;;5.63;4.22;;;16.50;99.90;;;;;;6228093;28;20042;-80
2023/07/17 04:24:04;;;;;;;5.90;3.65;;;16.50;99.90;;;;;;6229693;28;20048;-81
2023/07/17 04:27:07;;;;;;;7.43;3.95;;;16.60;99.90;;;;;;6229489;28;20046;-80
2023/07/17 04:30:10;;;;;;;11.80;4.60;;;16.60;99.90;;;;;;6228747;28;20053;-80
2023/07/17 04:33:11;;;;;;;8.40;3.85;;;16.60;99.90;;;;;;6233127;28;20413;-81
2023/07/17 04:36:13;;;;;;;11.63;4.15;;;16.60;99.90;;;;;;6227037;28;20049;-79
2023/07/17 04:39:15;;;;;;;4.88;4.10;;;16.70;99.90;;;;;;6228886;28;20053;-80
2023/07/17 04:42:17;;;;;;;6.57;4.72;;;16.70;99.90;;;;;;6228240;28;20049;-80
2023/07/17 04:45:20;;;;;;;6.25;3.42;;;16.80;99.90;;;;;;6228156;28;20065;-80
2023/07/17 04:48:22;;;;;;;11.15;4.80;;;16.90;99.90;;;;;;6227132;28;20116;-81
2023/07/17 04:51:25;;;;;;;8.52;4.22;;;17.00;99.90;;;;;;6228538;28;20397;-79
2023/07/17 04:54:28;;;;;;;6.03;4.38;;;17.20;99.90;;;;;;6227923;28;20053;-81
2023/07/17 04:57:31;;;;;;;8.05;4.18;;;17.20;99.90;;;;;;6227967;28;20072;-81
2023/07/17 05:00:33;;;;;;;6.93;4.05;;;17.40;99.90;;;;;;6225197;28;20116;-81
2023/07/17 05:03:36;;;;;;;5.03;3.50;;;17.50;99.90;;;;;;6223677;28;20050;-81
2023/07/17 05:06:37;;;;;;;6.28;3.58;;;17.50;99.90;;;;;;6223933;28;20046;-81
2023/07/17 05:09:39;;;;;;;7.72;3.47;;;17.60;99.90;;;;;;6223240;28;20058;-80
2023/07/17 05:12:42;;;;;;;8.93;3.47;;;17.70;99.90;;;;;;6223993;28;20038;-80
2023/07/17 05:15:44;;;;;;;6.20;3.33;;;17.90;99.90;;;;;;6222903;28;20050;-80
2023/07/17 05:18:45;;;;;;;10.73;4.15;;;18.00;99.90;;;;;;6222940;28;20042;-80
2023/07/17 05:21:47;;;;;;;10.65;3.75;;;18.10;99.90;;;;;;6223926;28;20058;-80
2023/07/17 05:24:49;;;;;;;3.80;3.13;;;18.30;99.90;;;;;;6223294;28;20515;-79
2023/07/17 05:27:52;;;;;;;7.95;3.35;;;18.60;99.90;;;;;;6223188;28;20069;-80
2023/07/17 05:30:54;;;;;;;10.52;3.67;;;19.00;99.90;;;;;;6223773;28;20493;-81
2023/07/17 05:33:56;;;;;;;6.18;3.45;;;19.30;99.90;;;;;;6222769;28;20065;-80
2023/07/17 05:36:57;;;;;;;4.88;3.05;;;19.70;99.90;;;;;;6223079;28;20460;-80
2023/07/17 05:39:59;;;;;;;4.20;3.55;;;20.20;99.90;;;;;;6223414;28;20041;-80
2023/07/17 05:43:04;;;;;;;6.85;3.03;;;20.90;99.90;;;;;;6225821;28;20054;-82
2023/07/17 05:46:05;;;;;;;5.43;3.78;;;21.60;99.90;;;;;;6227795;28;20512;-81
2023/07/17 05:49:07;;;;;;;5.43;3.22;;;22.10;99.90;;;;;;6235618;28;20060;-80
2023/07/17 05:52:09;;;;;;;6.63;3.25;;;22.40;99.90;;;;;;6232425;28;20046;-81
2023/07/17 05:55:11;;;;;;;7.72;2.83;;;22.70;99.90;;;;;;6204798;28;20505;-80
2023/07/17 05:58:14;;;;;;;4.20;2.70;;;22.90;99.90;;;;;;6238343;28;20414;-80
2023/07/17 06:01:16;;;;;;;7.65;3.45;;;23.20;99.90;;;;;;6222383;28;20097;-80
2023/07/17 06:04:18;;;;;;;8.90;3.20;;;23.00;99.90;;;;;;6221371;28;20045;-78
2023/07/17 06:07:19;;;;;;;3.78;2.88;;;23.30;99.90;;;;;;6224775;28;20049;-77
2023/07/17 06:10:21;;;;;;;4.78;2.88;;;24.00;99.90;;;;;;6225595;28;20049;-78
2023/07/17 06:13:24;;;;;;;7.07;3.17;;;24.20;99.50;;;;;;6224052;28;20045;-77
2023/07/17 06:16:26;;;;;;;6.53;3.00;;;24.30;98.80;;;;;;6225030;28;20485;-79
2023/07/17 06:19:27;;;;;;;8.25;3.80;;;24.70;97.90;;;;;;6226607;28;20054;-77
2023/07/17 06:22:29;;;;;;;9.13;3.83;;;24.80;96.80;;;;;;6229267;28;20037;-80
2023/07/17 06:25:31;;;;;;;5.70;2.83;;;24.70;96.10;;;;;;6229849;28;20050;-80
2023/07/17 06:28:34;;;;;;;5.78;2.65;;;24.50;95.90;;;;;;6227636;28;20044;-78
2023/07/17 06:31:36;;;;;;;5.63;3.35;;;24.60;95.80;;;;;;6233380;28;20049;-78
2023/07/17 06:34:38;;;;;;;7.35;3.60;;;25.00;95.10;;;;;;6226718;28;21392;-78
2023/07/17 06:37:39;;;;;;;4.18;2.80;;;25.50;94.30;;;;;;6229981;28;20134;-79
2023/07/17 06:40:41;;;;;;;7.63;4.30;;;26.20;92.90;;;;;;6226171;28;20064;-80
2023/07/17 06:43:46;;;;;;;4.55;2.78;;;26.80;91.90;;;;;;6227259;28;20181;-78
2023/07/17 06:46:47;;;;;;;4.93;2.97;;;27.80;90.30;;;;;;6231341;28;20057;-78
2023/07/17 06:49:49;;;;;;;4.25;2.80;;;28.30;85.70;;;;;;6224102;28;20054;-79
2023/07/17 06:52:51;;;;;;;4.25;2.65;;;28.40;83.80;;;;;;6228063;28;20057;-79
2023/07/17 06:55:57;;;;;;;5.63;3.10;;;28.50;79.70;;;;;;6223512;28;20061;-79
2023/07/17 06:59:01;;;;;;;3.75;2.65;;;27.50;79.50;;;;;;6220447;28;20041;-80
2023/07/17 07:02:03;;;;;;;10.50;3.60;;;26.80;80.40;;;;;;6225296;28;20052;-80
2023/07/17 07:05:05;;;;;;;5.18;2.60;;;26.20;80.60;;;;;;6224628;28;20057;-80
2023/07/17 07:08:07;;;;;;;7.20;3.47;;;25.80;81.50;;;;;;6216658;28;20039;-82
2023/07/17 07:11:10;;;;;;;8.70;3.00;;;25.40;81.90;;;;;;6224178;28;20054;-79
2023/07/17 07:14:13;;;;;;;4.90;2.85;;;25.20;82.00;;;;;;6222824;28;20068;-81
2023/07/17 07:17:15;;;;;;;4.53;2.78;;;25.00;83.20;;;;;;6224167;28;20048;-79
2023/07/17 07:20:17;;;;;;;6.90;2.97;;;24.80;83.70;;;;;;6218325;28;20057;-81
2023/07/17 07:23:19;;;;;;;5.18;2.97;;;24.80;84.10;;;;;;6225282;28;20054;-81
2023/07/17 07:26:20;;;;;;;7.22;3.33;;;24.80;84.90;;;;;;6217578;28;20051;-82
2023/07/17 07:29:23;;;;;;;6.93;3.42;;;24.90;85.20;;;;;;6222474;28;20057;-82
2023/07/17 07:32:25;;;;;;;5.25;3.65;;;25.00;85.10;;;;;;6223067;28;20513;-81
2023/07/17 07:35:27;;;;;;;5.95;4.18;;;25.10;84.70;;;;;;6220907;28;20057;-81
2023/07/17 07:38:28;;;;;;;6.00;4.72;;;25.20;82.70;;;;;;6222911;28;20061;-82
2023/07/17 07:41:30;;;;;;;8.00;4.35;;;25.10;81.30;;;;;;6224183;28;20045;-80
2023/07/17 07:44:34;;;;;;;10.50;4.47;;;25.10;80.50;;;;;;6215160;28;20065;-81
2023/07/17 07:47:35;;;;;;;7.15;4.72;;;25.30;79.50;;;;;;6208320;28;20038;-81
2023/07/17 07:50:37;;;;;;;7.80;4.10;;;25.50;79.10;;;;;;6209995;28;20061;-81
2023/07/17 07:53:39;;;;;;;4.45;3.55;;;25.60;78.40;;;;;;6208376;28;20045;-80
2023/07/17 07:56:40;;;;;;;6.13;4.15;;;25.60;78.00;;;;;;6206797;28;20052;-78
2023/07/17 07:59:43;;;;;;;9.50;4.88;;;25.70;77.90;;;;;;6209320;28;20046;-81
2023/07/17 08:02:45;;;;;;;8.45;4.32;;;25.90;77.30;;;;;;6209994;28;20406;-80
2023/07/17 08:05:47;;;;;;;6.70;4.25;;;26.00;76.90;;;;;;6206061;28;20054;-79
2023/07/17 08:08:48;;;;;;;7.65;4.10;;;26.20;76.40;;;;;;6223163;28;20048;-80
2023/07/17 08:11:50;;;;;;;9.98;4.80;;;26.30;76.10;;;;;;6227003;28;20304;-79
2023/07/17 08:14:54;;;;;;;7.15;4.28;;;26.50;75.10;;;;;;6221841;28;20369;-79
2023/07/17 08:17:56;;;;;;;9.77;3.65;;;26.30;73.90;;;;;;6218163;28;20056;-80
2023/07/17 08:20:57;;;;;;;10.23;4.35;;;26.10;73.50;;;;;;6217138;28;20064;-81
2023/07/17 08:23:59;;;;;;;10.70;4.03;;;26.10;73.50;;;;;;6222464;28;20054;-79
2023/07/17 08:27:01;;;;;;;8.85;4.20;;;26.10;73.00;;;;;;6215626;28;20058;-80
2023/07/17 08:30:05;;;;;;;3.63;3.28;;;25.80;72.60;;;;;;6225119;28;20049;-80
2023/07/17 08:33:07;;;;;;;11.55;4.47;;;25.70;72.60;;;;;;6219634;28;20078;-80
2023/07/17 08:36:09;;;;;;;9.98;4.00;;;25.80;73.00;;;;;;6224718;28;20100;-79
2023/07/17 08:39:11;;;;;;;6.82;3.97;;;25.90;71.80;;;;;;6227030;28;20053;-80
2023/07/17 08:42:14;;;;;;;6.10;3.65;;;25.90;70.40;;;;;;6226590;28;20050;-80
2023/07/17 08:45:17;;;;;;;6.03;3.63;;;26.00;69.80;;;;;;6227938;28;20104;-79
2023/07/17 08:48:20;;;;;;;7.80;4.43;;;26.30;70.10;;;;;;6228624;28;20133;-79
2023/07/17 08:51:23;;;;;;;6.18;3.83;;;26.50;70.00;;;;;;6225709;28;20049;-79
2023/07/17 08:54:24;;;;;;;6.40;4.00;;;26.80;69.40;;;;;;6227938;28;20054;-79
2023/07/17 08:57:27;;;;;;;5.28;3.45;;;27.10;69.10;;;;;;6224876;28;20053;-80
2023/07/17 09:00:31;;;;;;;4.13;3.47;;;27.30;68.20;;;;;;6226485;28;20058;-80
2023/07/17 09:03:36;;;;;;;4.97;3.08;;;27.40;67.40;;;;;;6225446;28;20053;-80
2023/07/17 09:06:37;;;;;;;2.95;2.65;;;27.40;66.50;;;;;;6227605;28;20050;-80
2023/07/17 09:09:39;;;;;;;6.03;3.30;;;27.10;66.00;;;;;;6226016;28;20046;-80
2023/07/17 09:12:42;;;;;;;8.95;3.83;;;26.90;66.20;;;;;;6225037;28;20042;-80
2023/07/17 09:15:45;;;;;;;7.80;3.90;;;26.80;66.10;;;;;;6224084;28;20425;-80
2023/07/17 09:18:47;;;;;;;7.40;3.95;;;26.70;66.60;;;;;;6223388;28;20369;-79
2023/07/17 09:21:48;;;;;;;6.75;3.97;;;26.90;66.30;;;;;;6212154;28;20072;-80
2023/07/17 09:24:50;;;;;;;7.03;4.35;;;26.90;64.60;;;;;;6223191;28;20057;-80
2023/07/17 09:27:53;;;;;;;10.23;3.40;;;26.80;65.40;;;;;;6224642;28;20042;-80
2023/07/17 09:31:02;;;;;;;4.93;3.28;;;27.20;65.40;;;;;;6222684;28;20377;-79
2023/07/17 09:34:13;;;;;;;4.97;3.72;;;27.30;63.80;;;;;;6221707;28;20050;-80
2023/07/17 09:37:14;;;;;;;8.13;3.83;;;27.30;62.60;;;;;;6222758;28;20077;-79
2023/07/17 09:40:18;;;;;;;6.68;3.38;;;27.30;62.60;;;;;;6222627;28;20049;-80
2023/07/17 09:43:30;;;;;;;4.57;3.42;;;27.60;62.00;;;;;;6222996;28;20050;-80
2023/07/17 09:46:35;;;;;;;6.40;4.13;;;27.70;61.30;;;;;;6222964;28;20501;-80
2023/07/17 09:49:38;;;;;;;3.65;3.22;;;27.70;61.50;;;;;;6223848;28;20045;-80
2023/07/17 09:52:41;;;;;;;9.40;3.50;;;27.70;61.40;;;;;;6222838;28;20409;-80
2023/07/17 09:55:44;;;;;;;4.28;3.40;;;27.70;61.30;;;;;;6222721;28;20058;-79
2023/07/17 09:58:47;;;;;;;6.80;3.85;;;27.80;60.70;;;;;;6245212;28;20064;-80
2023/07/17 10:01:55;;;;;;;10.23;3.50;;;27.70;60.60;;;;;;6247117;28;20048;-79
2023/07/17 10:04:59;;;;;;;6.60;3.72;;;27.70;60.80;;;;;;6246675;28;20586;-80
2023/07/17 10:08:04;;;;;;;9.85;4.10;;;27.90;61.00;;;;;;6246303;28;20045;-79
2023/07/17 10:11:12;;;;;;;7.10;3.80;;;28.20;60.70;;;;;;6247717;28;20460;-80
2023/07/17 10:14:15;;;;;;;6.25;3.42;;;28.50;59.70;;;;;;6249111;28;20056;-81
2023/07/17 10:17:31;;;;;;;12.45;4.60;;;28.70;59.00;;;;;;6247860;28;20045;-80
2023/07/17 10:20:32;;;;;;;9.38;4.28;;;29.10;58.20;;;;;;6235738;28;20045;-77
2023/07/17 10:23:34;;;;;;;5.82;3.85;;;29.30;57.40;;;;;;6251570;28;20054;-78
2023/07/17 10:26:37;;;;;;;5.70;3.40;;;29.20;57.00;;;;;;6252312;28;20049;-78
2023/07/17 10:29:42;;;;;;;6.10;4.20;;;29.10;56.40;;;;;;6251453;28;20396;-78
2023/07/17 10:32:45;;;;;;;6.00;3.05;;;28.90;55.50;;;;;;6252358;28;20117;-77
2023/07/17 10:35:49;;;;;;;8.27;3.28;;;28.80;55.50;;;;;;6252254;28;20056;-77
2023/07/17 10:38:53;;;;;;;5.30;3.60;;;29.10;54.90;;;;;;6251586;28;20046;-79
2023/07/17 10:41:54;;;;;;;8.82;3.45;;;29.50;54.50;;;;;;6255242;28;20049;-79
2023/07/17 10:45:08;;;;;;;7.88;4.10;;;29.20;54.20;;;;;;6256773;28;20041;-78
2023/07/17 10:48:11;;;;;;;7.63;3.60;;;28.90;54.20;;;;;;6256668;28;20049;-79
2023/07/17 10:51:15;;;;;;;5.78;3.00;;;29.20;53.60;;;;;;6257230;28;20060;-79
2023/07/17 10:54:18;;;;;;;4.95;3.33;;;29.60;53.00;;;;;;6257974;28;20133;-78
2023/07/17 10:57:20;;;;;;;5.30;3.22;;;29.80;52.20;;;;;;6256254;28;20049;-79
2023/07/17 11:00:21;;;;;;;5.57;3.58;;;29.90;51.80;;;;;;6255662;28;20043;-79
2023/07/17 11:03:26;;;;;;;6.35;3.58;;;30.20;51.30;;;;;;6256442;28;20049;-79
2023/07/17 11:06:28;;;;;;;4.63;3.72;;;30.50;50.50;;;;;;6256709;28;20115;-79
2023/07/17 11:09:30;;;;;;;5.72;2.88;;;30.80;50.00;;;;;;6250861;28;20041;-80
2023/07/17 11:12:32;;;;;;;7.00;3.05;;;30.90;49.50;;;;;;6250466;28;20045;-78
2023/07/17 11:15:35;;;;;;;6.82;3.85;;;30.90;49.40;;;;;;6250746;28;20057;-78
2023/07/17 11:18:46;;;;;;;7.47;3.55;;;31.00;48.80;;;;;;6245731;28;20056;-78
2023/07/17 11:21:49;;;;;;;6.57;3.75;;;30.90;48.10;;;;;;6219978;28;20046;-78
2023/07/17 11:24:51;;;;;;;10.90;3.38;;;31.00;48.90;;;;;;6225301;28;20103;-78
2023/07/17 11:27:54;;;;;;;6.80;3.28;;;31.50;48.70;;;;;;6233684;28;20050;-78
2023/07/17 11:30:56;;;;;;;9.35;3.38;;;31.50;47.70;;;;;;6249190;28;20045;-77
2023/07/17 11:34:00;;;;;;;6.07;2.72;;;31.30;47.30;;;;;;6248886;28;20049;-79
2023/07/17 11:37:03;;;;;;;8.30;3.53;;;31.30;47.40;;;;;;6248615;28;20050;-79
2023/07/17 11:40:06;;;;;;;4.68;3.05;;;31.70;47.20;;;;;;6248648;28;20148;-79
2023/07/17 11:43:08;;;;;;;5.55;3.80;;;32.00;46.90;;;;;;6246879;28;20608;-79
2023/07/17 11:46:11;;;;;;;4.82;4.35;;;32.00;46.60;;;;;;6248462;28;20504;-79
2023/07/17 11:49:14;;;;;;;5.75;3.38;;;32.10;46.40;;;;;;6247611;28;20054;-78
2023/07/17 11:52:20;;;;;;;6.30;2.80;;;32.40;46.10;;;;;;6232099;28;20053;-78
2023/07/17 11:55:23;;;;;;;6.43;3.38;;;32.50;45.60;;;;;;6249832;28;20049;-78
2023/07/17 11:58:26;;;;;;;7.07;3.65;;;32.70;45.20;;;;;;6210968;28;20038;-78
2023/07/17 12:01:28;;;;;;;5.35;3.50;;;32.70;44.70;;;;;;6214297;28;20055;-78
2023/07/17 12:04:35;;;;;;;7.43;3.33;;;32.50;44.60;;;;;;6217344;28;20058;-79
2023/07/17 12:07:37;;;;;;;7.20;3.08;;;32.70;45.10;;;;;;6210489;28;20137;-78
2023/07/17 12:10:39;;;;;;;5.53;3.85;;;32.80;44.20;;;;;;6219602;28;20064;-78
2023/07/17 12:13:41;;;;;;;6.53;3.45;;;32.60;44.40;;;;;;6217831;28;20046;-78
2023/07/17 12:16:43;;;;;;;5.28;3.28;;;32.60;44.30;;;;;;6212340;28;20064;-78
2023/07/17 12:19:46;;;;;;;4.25;3.53;;;32.80;44.40;;;;;;6215347;28;20038;-78
2023/07/17 12:22:49;;;;;;;6.00;3.55;;;33.10;44.10;;;;;;6215393;28;20049;-77
2023/07/17 12:25:51;;;;;;;6.75;3.40;;;33.50;44.10;;;;;;6216564;28;20057;-78
2023/07/17 12:28:52;;;;;;;7.03;4.15;;;34.00;44.30;;;;;;6212892;28;20054;-77
2023/07/17 12:31:54;;;;;;;3.50;2.72;;;34.40;43.70;;;;;;6220201;28;20044;-78
2023/07/17 12:34:57;;;;;;;6.30;3.67;;;34.60;42.90;;;;;;6208784;28;20061;-78
2023/07/17 12:37:59;;;;;;;6.70;3.22;;;33.50;42.30;;;;;;6212263;28;20045;-77
2023/07/17 12:41:01;;;;;;;5.38;3.70;;;32.70;43.40;;;;;;6213458;28;20057;-78
2023/07/17 12:44:02;;;;;;;3.58;2.63;;;32.70;43.50;;;;;;6213013;28;20079;-78
2023/07/17 12:47:05;;;;;;;7.13;3.05;;;32.50;43.60;;;;;;6214478;28;20050;-79
2023/07/17 12:50:09;;;;;;;4.13;2.55;;;32.30;43.80;;;;;;6217315;28;20047;-80
2023/07/17 12:53:10;;;;;;;4.07;3.22;;;32.50;44.40;;;;;;6209886;28;20629;-79
2023/07/17 12:56:12;;;;;;;4.70;2.70;;;32.60;43.30;;;;;;6213793;28;20505;-78
2023/07/17 12:59:14;;;;;;;3.17;2.40;;;32.70;42.80;;;;;;6212591;28;20049;-79
2023/07/17 13:02:16;;;;;;;7.60;3.60;;;32.70;42.80;;;;;;6213209;28;20409;-79
2023/07/17 13:05:20;;;;;;;5.22;3.10;;;32.90;42.70;;;;;;6209382;28;20444;-78
2023/07/17 13:08:21;;;;;;;3.92;2.35;;;33.00;42.90;;;;;;6217712;28;20057;-78
2023/07/17 13:11:23;;;;;;;5.90;3.53;;;33.10;42.00;;;;;;6212888;28;20061;-79
2023/07/17 13:14:26;;;;;;;8.57;3.30;;;32.70;42.10;;;;;;6223005;28;21513;-79
2023/07/17 13:17:31;;;;;;;5.55;3.53;;;32.20;42.30;;;;;;6229372;28;20106;-79
2023/07/17 13:20:34;;;;;;;7.38;3.08;;;32.10;42.60;;;;;;6228572;28;20826;-79
2023/07/17 13:23:36;;;;;;;4.43;3.38;;;31.90;42.80;;;;;;6224559;28;20070;-78
2023/07/17 13:26:38;;;;;;;2.95;2.50;;;31.80;42.70;;;;;;6224189;28;20073;-79
2023/07/17 13:29:52;;;;;;;4.70;3.17;;;31.80;42.90;;;;;;6224734;28;20073;-79
2023/07/17 13:32:54;;;;;;;8.57;2.78;;;32.30;42.60;;;;;;6222458;28;20053;-79
2023/07/17 13:35:57;;;;;;;4.35;2.70;;;32.70;42.10;;;;;;6215842;28;20180;-78
2023/07/17 13:38:59;;;;;;;6.30;3.35;;;32.70;42.00;;;;;;6210050;28;20384;-79
2023/07/17 13:42:01;;;;;;;9.57;2.75;;;32.80;41.60;;;;;;6214293;28;20050;-78
2023/07/17 13:45:03;;;;;;;5.47;2.85;;;32.90;41.20;;;;;;6207314;28;20062;-79
2023/07/17 13:48:05;;;;;;;6.97;3.42;;;33.10;40.50;;;;;;6207085;28;20061;-78
2023/07/17 13:51:08;;;;;;;4.75;3.03;;;33.30;40.40;;;;;;6208761;28;20049;-78
2023/07/17 13:54:10;;;;;;;4.63;2.40;;;33.80;40.30;;;;;;6209019;28;20150;-78
2023/07/17 13:57:12;;;;;;;8.73;3.03;;;34.10;40.10;;;;;;6206245;28;20058;-78
2023/07/17 14:00:14;;;;;;;6.03;3.00;;;34.20;39.90;;;;;;6201802;28;20513;-79
2023/07/17 14:03:16;;;;;;;6.82;2.22;;;34.30;39.70;;;;;;6206342;28;20053;-79
2023/07/17 14:06:19;;;;;;;5.07;3.10;;;34.30;39.10;;;;;;6213647;28;20516;-78
2023/07/17 14:09:22;;;;;;;4.18;2.63;;;34.40;39.00;;;;;;6216216;28;20050;-78
2023/07/17 14:12:24;;;;;;;2.58;2.13;;;34.20;38.60;;;;;;6217001;28;20230;-78
2023/07/17 14:15:26;;;;;;;3.63;2.53;;;34.10;38.70;;;;;;6227488;28;21621;-80
2023/07/17 14:18:28;;;;;;;3.63;2.22;;;34.00;38.80;;;;;;6227733;28;20135;-79
2023/07/17 14:21:31;;;;;;;4.50;2.88;;;33.80;38.50;;;;;;6222105;28;20049;-79
2023/07/17 14:24:32;;;;;;;5.45;3.17;;;33.70;38.60;;;;;;6224430;28;20045;-77
2023/07/17 14:27:34;;;;;;;3.65;2.85;;;33.60;38.40;;;;;;6229465;28;20061;-78
2023/07/17 14:30:36;;;;;;;2.88;2.15;;;33.60;38.60;;;;;;6221140;28;20465;-79
2023/07/17 14:33:38;;;;;;;4.43;2.17;;;33.50;38.30;;;;;;6217930;28;20054;-78
2023/07/17 14:36:41;;;;;;;8.48;2.35;;;33.50;38.20;;;;;;6219518;28;20042;-79
2023/07/17 14:39:42;;;;;;;7.60;2.92;;;33.40;37.90;;;;;;6219174;28;20053;-77
2023/07/17 14:42:44;;;;;;;4.40;2.25;;;33.20;38.20;;;;;;6220014;28;20054;-78
2023/07/17 14:45:46;;;;;;;5.10;2.63;;;33.20;38.30;;;;;;6219963;28;20061;-78
2023/07/17 14:48:47;;;;;;;3.08;1.75;;;33.30;38.30;;;;;;6217969;28;20056;-80
2023/07/17 14:51:50;;;;;;;5.22;1.85;;;33.30;38.30;;;;;;6215906;28;20045;-79
2023/07/17 14:54:52;;;;;;;4.07;2.00;;;33.30;38.30;;;;;;6219950;28;20049;-79
2023/07/17 14:57:54;;;;;;;5.40;2.50;;;33.30;38.00;;;;;;6217471;28;20049;-79
2023/07/17 15:00:56;;;;;;;5.10;2.78;;;33.30;38.50;;;;;;6217823;28;20045;-79
2023/07/17 15:03:57;;;;;;;4.72;3.38;;;33.50;38.50;;;;;;6213296;28;20052;-79
2023/07/17 15:07:00;;;;;;;8.35;3.30;;;33.30;37.80;;;;;;6219146;28;20069;-79
2023/07/17 15:10:02;;;;;;;5.18;2.10;;;33.10;37.90;;;;;;6209461;28;20042;-79
2023/07/17 15:13:04;;;;;;;8.07;2.30;;;33.30;38.00;;;;;;6224626;28;20121;-78
2023/07/17 15:16:06;;;;;;;3.70;2.08;;;33.10;37.90;;;;;;6221736;28;20042;-79
2023/07/17 15:19:07;;;;;;;4.50;2.63;;;33.10;38.10;;;;;;6220542;28;20056;-78
2023/07/17 15:22:12;;;;;;;5.97;2.05;;;33.20;38.10;;;;;;6229252;28;20049;-78
2023/07/17 15:25:14;;;;;;;3.92;1.80;;;33.20;37.80;;;;;;6221193;28;20493;-78
2023/07/17 15:28:15;;;;;;;3.53;1.70;;;32.90;37.60;;;;;;6216882;28;20043;-77
2023/07/17 15:31:17;;;;;;;5.80;2.83;;;32.60;37.70;;;;;;6217383;28;20133;-79
2023/07/17 15:34:19;;;;;;;4.15;2.70;;;32.30;37.90;;;;;;6211015;28;20521;-77
2023/07/17 15:37:22;;;;;;;18.88;3.97;;;32.20;38.00;;;;;;6217745;28;20445;-79
2023/07/17 15:40:24;;;;;;;6.93;2.03;;;32.20;38.30;;;;;;6219379;28;20062;-79
2023/07/17 15:43:26;;;;;;;4.40;1.92;;;32.30;38.10;;;;;;6216778;28;20054;-79
2023/07/17 15:46:27;;;;;;;6.97;2.17;;;32.10;37.80;;;;;;6220055;28;20042;-80
2023/07/17 15:49:29;;;;;;;7.55;2.35;;;32.00;38.00;;;;;;6224755;28;20053;-80